sensor_id;sensor_type;location;lat;lon;timestamp;P1;durP1;ratioP1;P2;durP2;ratioP2
46755;SDS011;32506;52.826;-1.192;2023-05-09T00:00:26;2.28;;;0.73;;
46755;SDS011;32506;52.826;-1.192;2023-05-09T00:02:52;1.25;;;0.70;;
46755;SDS011;32506;52.826;-1.192;2023-05-09T00:05:18;0.65;;;0.40;;
46755;SDS011;32506;52.826;-1.192;2023-05-09T00:07:45;1.02;;;0.70;;
46755;SDS011;32506;52.826;-1.192;2023-05-09T00:10:11;2.00;;;0.82;;
46755;SDS011;32506;52.826;-1.192;2023-05-09T00:12:37;1.45;;;0.50;;
46755;SDS011;32506;52.826;-1.192;2023-05-09T00:15:02;2.17;;;1.08;;
46755;SDS011;32506;52.826;-1.192;2023-05-09T00:17:30;1.95;;;0.60;;
46755;SDS011;32506;52.826;-1.192;2023-05-09T00:19:55;1.92;;;1.00;;
46755;SDS011;32506;52.826;-1.192;2023-05-09T00:22:21;3.45;;;0.60;;
46755;SDS011;32506;52.826;-1.192;2023-05-09T00:24:46;1.25;;;0.50;;
46755;SDS011;32506;52.826;-1.192;2023-05-09T00:27:12;1.38;;;0.50;;
46755;SDS011;32506;52.826;-1.192;2023-05-09T00:29:38;1.75;;;0.80;;
46755;SDS011;32506;52.826;-1.192;2023-05-09T00:32:04;1.48;;;0.60;;
46755;SDS011;32506;52.826;-1.192;2023-05-09T00:34:29;1.88;;;0.63;;
46755;SDS011;32506;52.826;-1.192;2023-05-09T00:36:55;1.70;;;0.90;;
46755;SDS011;32506;52.826;-1.192;2023-05-09T00:39:20;1.25;;;0.70;;
46755;SDS011;32506;52.826;-1.192;2023-05-09T00:41:46;1.80;;;0.70;;
46755;SDS011;32506;52.826;-1.192;2023-05-09T00:44:11;1.08;;;0.68;;
46755;SDS011;32506;52.826;-1.192;2023-05-09T00:46:37;4.10;;;0.95;;
46755;SDS011;32506;52.826;-1.192;2023-05-09T00:49:04;1.92;;;0.75;;
46755;SDS011;32506;52.826;-1.192;2023-05-09T00:51:29;2.20;;;0.90;;
46755;SDS011;32506;52.826;-1.192;2023-05-09T00:53:56;2.17;;;0.60;;
46755;SDS011;32506;52.826;-1.192;2023-05-09T00:56:22;1.15;;;0.60;;
46755;SDS011;32506;52.826;-1.192;2023-05-09T00:58:48;1.15;;;0.60;;
46755;SDS011;32506;52.826;-1.192;2023-05-09T01:01:14;1.73;;;1.00;;
46755;SDS011;32506;52.826;-1.192;2023-05-09T01:03:40;1.15;;;0.73;;
46755;SDS011;32506;52.826;-1.192;2023-05-09T01:06:11;0.80;;;0.50;;
46755;SDS011;32506;52.826;-1.192;2023-05-09T01:08:52;0.82;;;0.55;;
46755;SDS011;32506;52.826;-1.192;2023-05-09T01:17:08;0.90;;;0.50;;
46755;SDS011;32506;52.826;-1.192;2023-05-09T01:22:03;2.55;;;0.85;;
46755;SDS011;32506;52.826;-1.192;2023-05-09T01:30:03;1.55;;;0.65;;
46755;SDS011;32506;52.826;-1.192;2023-05-09T01:32:29;1.60;;;0.60;;
46755;SDS011;32506;52.826;-1.192;2023-05-09T01:35:00;1.90;;;0.68;;
46755;SDS011;32506;52.826;-1.192;2023-05-09T01:37:28;2.00;;;0.90;;
46755;SDS011;32506;52.826;-1.192;2023-05-09T01:40:02;1.65;;;0.43;;
46755;SDS011;32506;52.826;-1.192;2023-05-09T01:42:37;1.30;;;0.70;;
46755;SDS011;32506;52.826;-1.192;2023-05-09T01:45:08;1.33;;;0.60;;
46755;SDS011;32506;52.826;-1.192;2023-05-09T01:47:36;1.45;;;0.60;;
46755;SDS011;32506;52.826;-1.192;2023-05-09T01:50:03;1.67;;;0.70;;
46755;SDS011;32506;52.826;-1.192;2023-05-09T01:52:30;2.08;;;0.80;;
46755;SDS011;32506;52.826;-1.192;2023-05-09T01:54:56;1.17;;;0.77;;
46755;SDS011;32506;52.826;-1.192;2023-05-09T01:57:23;1.67;;;0.63;;
46755;SDS011;32506;52.826;-1.192;2023-05-09T01:59:50;2.40;;;1.00;;
46755;SDS011;32506;52.826;-1.192;2023-05-09T02:02:17;1.58;;;0.70;;
46755;SDS011;32506;52.826;-1.192;2023-05-09T02:04:43;1.13;;;0.57;;
46755;SDS011;32506;52.826;-1.192;2023-05-09T02:07:10;1.42;;;0.68;;
46755;SDS011;32506;52.826;-1.192;2023-05-09T02:09:36;1.23;;;0.60;;
46755;SDS011;32506;52.826;-1.192;2023-05-09T02:12:02;1.30;;;0.70;;
46755;SDS011;32506;52.826;-1.192;2023-05-09T02:14:29;0.75;;;0.50;;
46755;SDS011;32506;52.826;-1.192;2023-05-09T02:16:55;3.28;;;0.95;;
46755;SDS011;32506;52.826;-1.192;2023-05-09T02:19:21;2.03;;;0.55;;
46755;SDS011;32506;52.826;-1.192;2023-05-09T02:21:47;1.27;;;0.77;;
46755;SDS011;32506;52.826;-1.192;2023-05-09T02:24:12;2.75;;;0.75;;
46755;SDS011;32506;52.826;-1.192;2023-05-09T02:26:38;2.22;;;0.57;;
46755;SDS011;32506;52.826;-1.192;2023-05-09T02:29:05;2.00;;;0.80;;
46755;SDS011;32506;52.826;-1.192;2023-05-09T02:31:31;1.15;;;0.55;;
46755;SDS011;32506;52.826;-1.192;2023-05-09T02:33:58;1.42;;;0.60;;
46755;SDS011;32506;52.826;-1.192;2023-05-09T02:36:25;1.20;;;0.60;;
46755;SDS011;32506;52.826;-1.192;2023-05-09T02:38:52;1.95;;;0.80;;
46755;SDS011;32506;52.826;-1.192;2023-05-09T02:41:18;1.08;;;0.70;;
46755;SDS011;32506;52.826;-1.192;2023-05-09T02:43:43;0.82;;;0.60;;
46755;SDS011;32506;52.826;-1.192;2023-05-09T02:46:09;2.17;;;0.88;;
46755;SDS011;32506;52.826;-1.192;2023-05-09T02:48:35;1.30;;;0.60;;
46755;SDS011;32506;52.826;-1.192;2023-05-09T02:51:01;3.00;;;0.90;;
46755;SDS011;32506;52.826;-1.192;2023-05-09T02:53:27;1.50;;;0.70;;
46755;SDS011;32506;52.826;-1.192;2023-05-09T02:55:52;1.10;;;0.63;;
46755;SDS011;32506;52.826;-1.192;2023-05-09T02:58:18;0.93;;;0.57;;
46755;SDS011;32506;52.826;-1.192;2023-05-09T03:00:44;2.05;;;0.90;;
46755;SDS011;32506;52.826;-1.192;2023-05-09T03:03:09;2.10;;;0.90;;
46755;SDS011;32506;52.826;-1.192;2023-05-09T03:05:35;3.78;;;1.00;;
46755;SDS011;32506;52.826;-1.192;2023-05-09T03:08:00;1.50;;;0.80;;
46755;SDS011;32506;52.826;-1.192;2023-05-09T03:10:26;1.67;;;0.70;;
46755;SDS011;32506;52.826;-1.192;2023-05-09T03:12:51;0.95;;;0.57;;
46755;SDS011;32506;52.826;-1.192;2023-05-09T03:15:16;2.00;;;0.68;;
46755;SDS011;32506;52.826;-1.192;2023-05-09T03:17:42;1.25;;;0.77;;
46755;SDS011;32506;52.826;-1.192;2023-05-09T03:20:07;2.03;;;0.60;;
46755;SDS011;32506;52.826;-1.192;2023-05-09T03:22:34;1.40;;;0.60;;
46755;SDS011;32506;52.826;-1.192;2023-05-09T03:25:00;1.20;;;0.73;;
46755;SDS011;32506;52.826;-1.192;2023-05-09T03:27:25;0.80;;;0.50;;
46755;SDS011;32506;52.826;-1.192;2023-05-09T03:29:51;1.33;;;0.65;;
46755;SDS011;32506;52.826;-1.192;2023-05-09T03:32:16;2.10;;;0.50;;
46755;SDS011;32506;52.826;-1.192;2023-05-09T03:34:42;1.75;;;0.88;;
46755;SDS011;32506;52.826;-1.192;2023-05-09T03:37:07;2.10;;;0.60;;
46755;SDS011;32506;52.826;-1.192;2023-05-09T03:39:33;1.15;;;0.68;;
46755;SDS011;32506;52.826;-1.192;2023-05-09T03:41:58;0.90;;;0.45;;
46755;SDS011;32506;52.826;-1.192;2023-05-09T03:44:24;1.67;;;0.77;;
46755;SDS011;32506;52.826;-1.192;2023-05-09T03:46:49;1.63;;;0.75;;
46755;SDS011;32506;52.826;-1.192;2023-05-09T03:49:15;1.95;;;0.68;;
46755;SDS011;32506;52.826;-1.192;2023-05-09T03:51:40;1.33;;;0.50;;
46755;SDS011;32506;52.826;-1.192;2023-05-09T03:54:06;1.67;;;0.60;;
46755;SDS011;32506;52.826;-1.192;2023-05-09T03:56:31;1.40;;;0.43;;
46755;SDS011;32506;52.826;-1.192;2023-05-09T03:58:57;0.93;;;0.60;;
46755;SDS011;32506;52.826;-1.192;2023-05-09T04:01:22;1.42;;;0.70;;
46755;SDS011;32506;52.826;-1.192;2023-05-09T04:03:48;1.85;;;0.60;;
46755;SDS011;32506;52.826;-1.192;2023-05-09T04:06:14;1.20;;;0.60;;
46755;SDS011;32506;52.826;-1.192;2023-05-09T04:08:39;2.38;;;0.68;;
46755;SDS011;32506;52.826;-1.192;2023-05-09T04:11:06;2.85;;;0.77;;
46755;SDS011;32506;52.826;-1.192;2023-05-09T04:13:32;1.15;;;0.70;;
46755;SDS011;32506;52.826;-1.192;2023-05-09T04:15:58;1.80;;;0.70;;
46755;SDS011;32506;52.826;-1.192;2023-05-09T04:18:23;1.13;;;0.50;;
46755;SDS011;32506;52.826;-1.192;2023-05-09T04:20:49;3.47;;;1.20;;
46755;SDS011;32506;52.826;-1.192;2023-05-09T04:23:14;2.00;;;0.98;;
46755;SDS011;32506;52.826;-1.192;2023-05-09T04:25:39;1.67;;;0.90;;
46755;SDS011;32506;52.826;-1.192;2023-05-09T04:28:05;1.52;;;0.85;;
46755;SDS011;32506;52.826;-1.192;2023-05-09T04:30:30;2.33;;;0.98;;
46755;SDS011;32506;52.826;-1.192;2023-05-09T04:32:56;2.00;;;0.90;;
46755;SDS011;32506;52.826;-1.192;2023-05-09T04:35:21;2.53;;;0.82;;
46755;SDS011;32506;52.826;-1.192;2023-05-09T04:37:47;3.08;;;1.00;;
46755;SDS011;32506;52.826;-1.192;2023-05-09T04:40:12;3.53;;;1.30;;
46755;SDS011;32506;52.826;-1.192;2023-05-09T04:42:39;2.00;;;0.88;;
46755;SDS011;32506;52.826;-1.192;2023-05-09T04:45:05;1.55;;;1.08;;
46755;SDS011;32506;52.826;-1.192;2023-05-09T04:47:31;3.60;;;1.38;;
46755;SDS011;32506;52.826;-1.192;2023-05-09T04:49:56;1.80;;;1.13;;
46755;SDS011;32506;52.826;-1.192;2023-05-09T04:52:22;2.70;;;0.93;;
46755;SDS011;32506;52.826;-1.192;2023-05-09T04:54:48;1.67;;;1.00;;
46755;SDS011;32506;52.826;-1.192;2023-05-09T04:57:13;3.03;;;1.05;;
46755;SDS011;32506;52.826;-1.192;2023-05-09T04:59:39;1.35;;;0.80;;
46755;SDS011;32506;52.826;-1.192;2023-05-09T05:02:05;2.15;;;0.95;;
46755;SDS011;32506;52.826;-1.192;2023-05-09T05:04:30;2.67;;;1.00;;
46755;SDS011;32506;52.826;-1.192;2023-05-09T05:06:56;1.45;;;0.88;;
46755;SDS011;32506;52.826;-1.192;2023-05-09T05:09:21;1.85;;;0.93;;
46755;SDS011;32506;52.826;-1.192;2023-05-09T05:11:47;2.53;;;0.90;;
46755;SDS011;32506;52.826;-1.192;2023-05-09T05:14:12;1.88;;;1.00;;
46755;SDS011;32506;52.826;-1.192;2023-05-09T05:16:38;2.70;;;0.90;;
46755;SDS011;32506;52.826;-1.192;2023-05-09T05:19:03;1.95;;;0.95;;
46755;SDS011;32506;52.826;-1.192;2023-05-09T05:21:29;4.57;;;1.08;;
46755;SDS011;32506;52.826;-1.192;2023-05-09T05:23:54;1.55;;;0.85;;
46755;SDS011;32506;52.826;-1.192;2023-05-09T05:26:20;2.30;;;1.05;;
46755;SDS011;32506;52.826;-1.192;2023-05-09T05:28:46;3.45;;;1.00;;
46755;SDS011;32506;52.826;-1.192;2023-05-09T05:31:11;1.80;;;0.80;;
46755;SDS011;32506;52.826;-1.192;2023-05-09T05:33:37;2.35;;;1.00;;
46755;SDS011;32506;52.826;-1.192;2023-05-09T05:36:02;3.22;;;1.13;;
46755;SDS011;32506;52.826;-1.192;2023-05-09T05:38:28;2.22;;;0.82;;
46755;SDS011;32506;52.826;-1.192;2023-05-09T05:40:53;3.38;;;1.00;;
46755;SDS011;32506;52.826;-1.192;2023-05-09T05:43:19;2.10;;;1.00;;
46755;SDS011;32506;52.826;-1.192;2023-05-09T05:45:44;1.70;;;0.57;;
46755;SDS011;32506;52.826;-1.192;2023-05-09T05:48:09;2.65;;;1.00;;
46755;SDS011;32506;52.826;-1.192;2023-05-09T05:50:35;2.08;;;0.70;;
46755;SDS011;32506;52.826;-1.192;2023-05-09T05:53:00;3.63;;;1.35;;
46755;SDS011;32506;52.826;-1.192;2023-05-09T05:55:26;3.22;;;1.00;;
46755;SDS011;32506;52.826;-1.192;2023-05-09T05:57:51;3.95;;;0.85;;
46755;SDS011;32506;52.826;-1.192;2023-05-09T06:00:17;2.40;;;0.85;;
46755;SDS011;32506;52.826;-1.192;2023-05-09T06:02:43;2.50;;;1.00;;
46755;SDS011;32506;52.826;-1.192;2023-05-09T06:05:09;2.45;;;0.75;;
46755;SDS011;32506;52.826;-1.192;2023-05-09T06:07:35;3.03;;;1.05;;
46755;SDS011;32506;52.826;-1.192;2023-05-09T06:10:01;1.50;;;0.70;;
46755;SDS011;32506;52.826;-1.192;2023-05-09T06:12:27;2.28;;;0.82;;
46755;SDS011;32506;52.826;-1.192;2023-05-09T06:14:52;2.45;;;1.02;;
46755;SDS011;32506;52.826;-1.192;2023-05-09T06:17:18;2.65;;;1.00;;
46755;SDS011;32506;52.826;-1.192;2023-05-09T06:19:43;2.17;;;0.73;;
46755;SDS011;32506;52.826;-1.192;2023-05-09T06:22:09;1.85;;;0.80;;
46755;SDS011;32506;52.826;-1.192;2023-05-09T06:24:35;1.55;;;0.60;;
46755;SDS011;32506;52.826;-1.192;2023-05-09T06:27:00;3.35;;;0.90;;
46755;SDS011;32506;52.826;-1.192;2023-05-09T06:29:26;1.33;;;0.70;;
46755;SDS011;32506;52.826;-1.192;2023-05-09T06:31:51;3.40;;;1.05;;
46755;SDS011;32506;52.826;-1.192;2023-05-09T06:34:17;2.08;;;0.80;;
46755;SDS011;32506;52.826;-1.192;2023-05-09T06:36:42;0.70;;;0.60;;
46755;SDS011;32506;52.826;-1.192;2023-05-09T06:39:08;2.58;;;0.98;;
46755;SDS011;32506;52.826;-1.192;2023-05-09T06:41:33;3.28;;;1.60;;
46755;SDS011;32506;52.826;-1.192;2023-05-09T06:43:59;2.63;;;0.73;;
46755;SDS011;32506;52.826;-1.192;2023-05-09T06:46:26;1.58;;;0.68;;
46755;SDS011;32506;52.826;-1.192;2023-05-09T06:48:52;2.85;;;0.82;;
46755;SDS011;32506;52.826;-1.192;2023-05-09T06:51:17;2.38;;;0.80;;
46755;SDS011;32506;52.826;-1.192;2023-05-09T06:53:43;2.85;;;0.85;;
46755;SDS011;32506;52.826;-1.192;2023-05-09T06:56:08;2.08;;;1.00;;
46755;SDS011;32506;52.826;-1.192;2023-05-09T06:58:34;3.33;;;0.95;;
46755;SDS011;32506;52.826;-1.192;2023-05-09T07:01:00;1.88;;;0.50;;
46755;SDS011;32506;52.826;-1.192;2023-05-09T07:03:26;3.63;;;1.17;;
46755;SDS011;32506;52.826;-1.192;2023-05-09T07:05:51;3.00;;;0.77;;
46755;SDS011;32506;52.826;-1.192;2023-05-09T07:08:17;1.95;;;0.68;;
46755;SDS011;32506;52.826;-1.192;2023-05-09T07:10:42;2.13;;;0.70;;
46755;SDS011;32506;52.826;-1.192;2023-05-09T07:13:08;2.28;;;1.00;;
46755;SDS011;32506;52.826;-1.192;2023-05-09T07:15:33;3.58;;;0.90;;
46755;SDS011;32506;52.826;-1.192;2023-05-09T07:17:58;2.20;;;0.82;;
46755;SDS011;32506;52.826;-1.192;2023-05-09T07:20:24;2.95;;;0.80;;
46755;SDS011;32506;52.826;-1.192;2023-05-09T07:22:49;1.92;;;0.70;;
46755;SDS011;32506;52.826;-1.192;2023-05-09T07:25:15;2.75;;;0.82;;
46755;SDS011;32506;52.826;-1.192;2023-05-09T07:27:40;1.00;;;0.70;;
46755;SDS011;32506;52.826;-1.192;2023-05-09T07:30:06;2.88;;;1.30;;
46755;SDS011;32506;52.826;-1.192;2023-05-09T07:32:33;2.25;;;0.80;;
46755;SDS011;32506;52.826;-1.192;2023-05-09T07:34:59;2.03;;;0.60;;
46755;SDS011;32506;52.826;-1.192;2023-05-09T07:37:24;1.92;;;0.80;;
46755;SDS011;32506;52.826;-1.192;2023-05-09T07:39:50;2.60;;;0.90;;
46755;SDS011;32506;52.826;-1.192;2023-05-09T07:42:16;2.47;;;0.93;;
46755;SDS011;32506;52.826;-1.192;2023-05-09T07:44:41;3.17;;;0.77;;
46755;SDS011;32506;52.826;-1.192;2023-05-09T07:47:07;1.40;;;0.70;;
46755;SDS011;32506;52.826;-1.192;2023-05-09T07:49:33;2.75;;;1.00;;
46755;SDS011;32506;52.826;-1.192;2023-05-09T07:51:59;3.97;;;1.58;;
46755;SDS011;32506;52.826;-1.192;2023-05-09T07:54:24;3.20;;;1.00;;
46755;SDS011;32506;52.826;-1.192;2023-05-09T07:56:50;2.40;;;0.90;;
46755;SDS011;32506;52.826;-1.192;2023-05-09T07:59:16;4.55;;;1.10;;
46755;SDS011;32506;52.826;-1.192;2023-05-09T08:01:42;2.75;;;1.15;;
46755;SDS011;32506;52.826;-1.192;2023-05-09T08:04:07;2.10;;;1.00;;
46755;SDS011;32506;52.826;-1.192;2023-05-09T08:06:34;4.72;;;1.17;;
46755;SDS011;32506;52.826;-1.192;2023-05-09T08:08:59;3.63;;;1.45;;
46755;SDS011;32506;52.826;-1.192;2023-05-09T08:11:25;4.07;;;1.10;;
46755;SDS011;32506;52.826;-1.192;2023-05-09T08:13:50;5.18;;;1.10;;
46755;SDS011;32506;52.826;-1.192;2023-05-09T08:16:16;3.35;;;1.20;;
46755;SDS011;32506;52.826;-1.192;2023-05-09T08:18:42;2.65;;;1.10;;
46755;SDS011;32506;52.826;-1.192;2023-05-09T08:21:07;3.03;;;1.73;;
46755;SDS011;32506;52.826;-1.192;2023-05-09T08:23:33;4.78;;;1.20;;
46755;SDS011;32506;52.826;-1.192;2023-05-09T08:25:59;3.78;;;1.00;;
46755;SDS011;32506;52.826;-1.192;2023-05-09T08:28:24;2.50;;;1.33;;
46755;SDS011;32506;52.826;-1.192;2023-05-09T08:30:55;1.90;;;1.00;;
46755;SDS011;32506;52.826;-1.192;2023-05-09T08:33:21;2.47;;;1.10;;
46755;SDS011;32506;52.826;-1.192;2023-05-09T08:35:51;3.10;;;1.23;;
46755;SDS011;32506;52.826;-1.192;2023-05-09T08:38:16;5.72;;;1.52;;
46755;SDS011;32506;52.826;-1.192;2023-05-09T08:40:42;2.38;;;1.40;;
46755;SDS011;32506;52.826;-1.192;2023-05-09T08:43:08;4.07;;;1.55;;
46755;SDS011;32506;52.826;-1.192;2023-05-09T08:45:38;4.43;;;1.27;;
46755;SDS011;32506;52.826;-1.192;2023-05-09T08:48:25;5.20;;;1.70;;
46755;SDS011;32506;52.826;-1.192;2023-05-09T08:50:53;2.88;;;1.50;;
46755;SDS011;32506;52.826;-1.192;2023-05-09T08:53:19;4.10;;;1.70;;
46755;SDS011;32506;52.826;-1.192;2023-05-09T08:55:46;3.53;;;2.03;;
46755;SDS011;32506;52.826;-1.192;2023-05-09T08:58:16;6.20;;;2.30;;
46755;SDS011;32506;52.826;-1.192;2023-05-09T09:00:43;3.38;;;2.15;;
46755;SDS011;32506;52.826;-1.192;2023-05-09T09:03:10;4.53;;;2.20;;
46755;SDS011;32506;52.826;-1.192;2023-05-09T09:05:36;4.47;;;2.15;;
46755;SDS011;32506;52.826;-1.192;2023-05-09T09:08:05;5.00;;;2.17;;
46755;SDS011;32506;52.826;-1.192;2023-05-09T09:10:31;3.67;;;2.13;;
46755;SDS011;32506;52.826;-1.192;2023-05-09T09:12:58;4.47;;;2.70;;
46755;SDS011;32506;52.826;-1.192;2023-05-09T09:15:28;4.57;;;2.67;;
46755;SDS011;32506;52.826;-1.192;2023-05-09T09:18:04;5.13;;;2.88;;
46755;SDS011;32506;52.826;-1.192;2023-05-09T09:20:33;5.10;;;2.60;;
46755;SDS011;32506;52.826;-1.192;2023-05-09T09:23:01;4.75;;;2.65;;
46755;SDS011;32506;52.826;-1.192;2023-05-09T09:25:28;3.67;;;2.60;;
46755;SDS011;32506;52.826;-1.192;2023-05-09T09:27:54;4.47;;;2.63;;
46755;SDS011;32506;52.826;-1.192;2023-05-09T09:30:21;4.75;;;2.53;;
46755;SDS011;32506;52.826;-1.192;2023-05-09T09:32:47;5.80;;;2.63;;
46755;SDS011;32506;52.826;-1.192;2023-05-09T09:35:13;3.42;;;2.50;;
46755;SDS011;32506;52.826;-1.192;2023-05-09T09:37:39;4.90;;;2.50;;
46755;SDS011;32506;52.826;-1.192;2023-05-09T09:40:07;6.30;;;2.90;;
46755;SDS011;32506;52.826;-1.192;2023-05-09T09:42:39;3.85;;;2.40;;
46755;SDS011;32506;52.826;-1.192;2023-05-09T09:45:13;5.65;;;2.50;;
46755;SDS011;32506;52.826;-1.192;2023-05-09T09:47:44;2.97;;;2.60;;
46755;SDS011;32506;52.826;-1.192;2023-05-09T09:50:11;5.50;;;2.58;;
46755;SDS011;32506;52.826;-1.192;2023-05-09T09:52:42;3.60;;;2.50;;
46755;SDS011;32506;52.826;-1.192;2023-05-09T09:55:19;4.03;;;2.50;;
46755;SDS011;32506;52.826;-1.192;2023-05-09T09:57:48;4.93;;;2.67;;
46755;SDS011;32506;52.826;-1.192;2023-05-09T10:00:15;6.45;;;3.05;;
46755;SDS011;32506;52.826;-1.192;2023-05-09T10:02:58;4.68;;;2.78;;
46755;SDS011;32506;52.826;-1.192;2023-05-09T10:05:27;5.85;;;2.70;;
46755;SDS011;32506;52.826;-1.192;2023-05-09T10:07:58;5.18;;;2.60;;
46755;SDS011;32506;52.826;-1.192;2023-05-09T10:10:25;5.38;;;2.05;;
46755;SDS011;32506;52.826;-1.192;2023-05-09T10:12:53;4.18;;;2.30;;
46755;SDS011;32506;52.826;-1.192;2023-05-09T10:15:21;7.60;;;2.78;;
46755;SDS011;32506;52.826;-1.192;2023-05-09T10:17:51;6.72;;;3.05;;
46755;SDS011;32506;52.826;-1.192;2023-05-09T10:20:20;5.50;;;2.40;;
46755;SDS011;32506;52.826;-1.192;2023-05-09T10:22:46;5.32;;;2.38;;
46755;SDS011;32506;52.826;-1.192;2023-05-09T10:25:13;7.82;;;2.60;;
46755;SDS011;32506;52.826;-1.192;2023-05-09T10:27:44;5.82;;;2.33;;
46755;SDS011;32506;52.826;-1.192;2023-05-09T10:30:18;6.65;;;2.75;;
46755;SDS011;32506;52.826;-1.192;2023-05-09T10:32:47;5.47;;;2.55;;
46755;SDS011;32506;52.826;-1.192;2023-05-09T10:35:17;4.95;;;2.53;;
46755;SDS011;32506;52.826;-1.192;2023-05-09T10:37:44;6.60;;;2.70;;
46755;SDS011;32506;52.826;-1.192;2023-05-09T10:40:10;5.00;;;2.10;;
46755;SDS011;32506;52.826;-1.192;2023-05-09T10:42:43;7.25;;;2.75;;
46755;SDS011;32506;52.826;-1.192;2023-05-09T10:45:11;5.82;;;2.88;;
46755;SDS011;32506;52.826;-1.192;2023-05-09T10:47:39;6.57;;;2.70;;
46755;SDS011;32506;52.826;-1.192;2023-05-09T10:50:06;7.40;;;2.90;;
46755;SDS011;32506;52.826;-1.192;2023-05-09T10:52:34;7.93;;;2.58;;
46755;SDS011;32506;52.826;-1.192;2023-05-09T11:00:48;4.70;;;2.65;;
46755;SDS011;32506;52.826;-1.192;2023-05-09T11:03:14;4.63;;;2.50;;
46755;SDS011;32506;52.826;-1.192;2023-05-09T11:05:43;6.70;;;2.70;;
46755;SDS011;32506;52.826;-1.192;2023-05-09T11:10:55;5.88;;;2.50;;
46755;SDS011;32506;52.826;-1.192;2023-05-09T11:13:23;3.83;;;2.60;;
46755;SDS011;32506;52.826;-1.192;2023-05-09T11:18:18;5.72;;;2.47;;
46755;SDS011;32506;52.826;-1.192;2023-05-09T11:20:44;5.90;;;2.60;;
46755;SDS011;32506;52.826;-1.192;2023-05-09T11:23:16;4.20;;;2.35;;
46755;SDS011;32506;52.826;-1.192;2023-05-09T11:25:47;2.80;;;2.15;;
46755;SDS011;32506;52.826;-1.192;2023-05-09T11:31:14;4.35;;;3.28;;
46755;SDS011;32506;52.826;-1.192;2023-05-09T11:33:41;3.88;;;3.33;;
46755;SDS011;32506;52.826;-1.192;2023-05-09T11:39:07;3.65;;;2.55;;
46755;SDS011;32506;52.826;-1.192;2023-05-09T11:41:41;3.25;;;2.45;;
46755;SDS011;32506;52.826;-1.192;2023-05-09T11:44:26;5.22;;;2.60;;
46755;SDS011;32506;52.826;-1.192;2023-05-09T11:46:54;6.47;;;2.53;;
46755;SDS011;32506;52.826;-1.192;2023-05-09T11:49:21;5.72;;;2.85;;
46755;SDS011;32506;52.826;-1.192;2023-05-09T11:51:47;4.25;;;2.75;;
46755;SDS011;32506;52.826;-1.192;2023-05-09T11:54:12;4.55;;;2.80;;
46755;SDS011;32506;52.826;-1.192;2023-05-09T11:56:39;4.07;;;2.58;;
46755;SDS011;32506;52.826;-1.192;2023-05-09T11:59:05;4.72;;;2.63;;
46755;SDS011;32506;52.826;-1.192;2023-05-09T12:01:31;5.43;;;2.58;;
46755;SDS011;32506;52.826;-1.192;2023-05-09T12:03:57;5.85;;;2.83;;
46755;SDS011;32506;52.826;-1.192;2023-05-09T12:06:23;4.72;;;2.38;;
46755;SDS011;32506;52.826;-1.192;2023-05-09T12:08:50;4.43;;;2.28;;
46755;SDS011;32506;52.826;-1.192;2023-05-09T12:11:17;5.47;;;2.55;;
46755;SDS011;32506;52.826;-1.192;2023-05-09T12:13:46;4.43;;;2.60;;
46755;SDS011;32506;52.826;-1.192;2023-05-09T12:16:12;3.13;;;2.00;;
46755;SDS011;32506;52.826;-1.192;2023-05-09T12:18:46;3.90;;;2.28;;
46755;SDS011;32506;52.826;-1.192;2023-05-09T12:21:13;4.57;;;2.25;;
46755;SDS011;32506;52.826;-1.192;2023-05-09T12:23:39;3.63;;;2.15;;
46755;SDS011;32506;52.826;-1.192;2023-05-09T12:26:04;6.38;;;2.28;;
46755;SDS011;32506;52.826;-1.192;2023-05-09T12:28:30;3.92;;;2.30;;
46755;SDS011;32506;52.826;-1.192;2023-05-09T12:30:56;5.47;;;2.15;;
46755;SDS011;32506;52.826;-1.192;2023-05-09T12:33:22;4.75;;;2.30;;
46755;SDS011;32506;52.826;-1.192;2023-05-09T12:35:59;4.35;;;2.00;;
46755;SDS011;32506;52.826;-1.192;2023-05-09T12:38:35;2.75;;;1.90;;
46755;SDS011;32506;52.826;-1.192;2023-05-09T12:41:02;3.55;;;2.08;;
46755;SDS011;32506;52.826;-1.192;2023-05-09T12:43:32;4.10;;;2.25;;
46755;SDS011;32506;52.826;-1.192;2023-05-09T12:45:59;5.18;;;2.35;;
46755;SDS011;32506;52.826;-1.192;2023-05-09T12:48:26;4.68;;;2.20;;
46755;SDS011;32506;52.826;-1.192;2023-05-09T12:50:53;3.25;;;2.03;;
46755;SDS011;32506;52.826;-1.192;2023-05-09T12:53:25;4.47;;;2.15;;
46755;SDS011;32506;52.826;-1.192;2023-05-09T12:56:34;5.57;;;2.00;;
46755;SDS011;32506;52.826;-1.192;2023-05-09T12:58:54;4.45;;;1.88;;
46755;SDS011;32506;52.826;-1.192;2023-05-09T13:01:21;2.55;;;1.92;;
46755;SDS011;32506;52.826;-1.192;2023-05-09T13:06:17;3.00;;;1.52;;
46755;SDS011;32506;52.826;-1.192;2023-05-09T13:08:43;2.75;;;1.83;;
46755;SDS011;32506;52.826;-1.192;2023-05-09T13:11:09;2.65;;;1.67;;
46755;SDS011;32506;52.826;-1.192;2023-05-09T13:13:36;2.30;;;1.42;;
46755;SDS011;32506;52.826;-1.192;2023-05-09T13:16:02;3.58;;;1.60;;
46755;SDS011;32506;52.826;-1.192;2023-05-09T13:18:29;2.78;;;1.45;;
46755;SDS011;32506;52.826;-1.192;2023-05-09T13:20:54;2.88;;;1.50;;
46755;SDS011;32506;52.826;-1.192;2023-05-09T13:23:20;2.25;;;1.10;;
46755;SDS011;32506;52.826;-1.192;2023-05-09T13:25:46;4.10;;;1.55;;
46755;SDS011;32506;52.826;-1.192;2023-05-09T13:28:12;3.80;;;1.73;;
46755;SDS011;32506;52.826;-1.192;2023-05-09T13:30:37;2.28;;;1.23;;
46755;SDS011;32506;52.826;-1.192;2023-05-09T13:33:02;2.80;;;1.10;;
46755;SDS011;32506;52.826;-1.192;2023-05-09T13:35:28;2.83;;;1.02;;
46755;SDS011;32506;52.826;-1.192;2023-05-09T13:37:54;3.05;;;1.10;;
46755;SDS011;32506;52.826;-1.192;2023-05-09T13:40:19;2.00;;;0.90;;
46755;SDS011;32506;52.826;-1.192;2023-05-09T13:42:46;3.30;;;0.90;;
46755;SDS011;32506;52.826;-1.192;2023-05-09T13:45:13;3.03;;;1.15;;
46755;SDS011;32506;52.826;-1.192;2023-05-09T13:47:38;1.90;;;0.85;;
46755;SDS011;32506;52.826;-1.192;2023-05-09T13:50:04;2.75;;;0.95;;
46755;SDS011;32506;52.826;-1.192;2023-05-09T13:52:30;2.47;;;0.60;;
46755;SDS011;32506;52.826;-1.192;2023-05-09T13:54:55;1.88;;;0.65;;
46755;SDS011;32506;52.826;-1.192;2023-05-09T13:57:21;2.45;;;1.00;;
46755;SDS011;32506;52.826;-1.192;2023-05-09T13:59:46;2.38;;;0.80;;
46755;SDS011;32506;52.826;-1.192;2023-05-09T14:02:12;4.40;;;1.20;;
46755;SDS011;32506;52.826;-1.192;2023-05-09T14:04:37;3.92;;;1.40;;
46755;SDS011;32506;52.826;-1.192;2023-05-09T14:07:03;1.92;;;0.90;;
46755;SDS011;32506;52.826;-1.192;2023-05-09T14:09:29;3.45;;;0.90;;
46755;SDS011;32506;52.826;-1.192;2023-05-09T14:11:54;1.55;;;0.93;;
46755;SDS011;32506;52.826;-1.192;2023-05-09T14:14:21;7.18;;;1.45;;
46755;SDS011;32506;52.826;-1.192;2023-05-09T14:16:48;4.25;;;1.50;;
46755;SDS011;32506;52.826;-1.192;2023-05-09T14:19:14;2.58;;;1.05;;
46755;SDS011;32506;52.826;-1.192;2023-05-09T14:21:40;2.97;;;1.10;;
46755;SDS011;32506;52.826;-1.192;2023-05-09T14:24:07;4.20;;;1.20;;
46755;SDS011;32506;52.826;-1.192;2023-05-09T14:26:33;4.78;;;1.17;;
46755;SDS011;32506;52.826;-1.192;2023-05-09T14:28:58;4.03;;;1.50;;
46755;SDS011;32506;52.826;-1.192;2023-05-09T14:31:24;5.60;;;1.75;;
46755;SDS011;32506;52.826;-1.192;2023-05-09T14:33:49;4.05;;;1.27;;
46755;SDS011;32506;52.826;-1.192;2023-05-09T14:36:15;2.65;;;1.40;;
46755;SDS011;32506;52.826;-1.192;2023-05-09T14:38:40;4.13;;;1.20;;
46755;SDS011;32506;52.826;-1.192;2023-05-09T14:41:06;4.15;;;1.45;;
46755;SDS011;32506;52.826;-1.192;2023-05-09T14:43:32;4.28;;;1.70;;
46755;SDS011;32506;52.826;-1.192;2023-05-09T14:45:58;3.58;;;1.63;;
46755;SDS011;32506;52.826;-1.192;2023-05-09T14:48:24;5.40;;;1.50;;
46755;SDS011;32506;52.826;-1.192;2023-05-09T14:50:49;4.25;;;1.65;;
46755;SDS011;32506;52.826;-1.192;2023-05-09T14:53:20;4.18;;;1.52;;
46755;SDS011;32506;52.826;-1.192;2023-05-09T14:55:46;3.30;;;1.30;;
46755;SDS011;32506;52.826;-1.192;2023-05-09T14:58:12;3.75;;;1.40;;
46755;SDS011;32506;52.826;-1.192;2023-05-09T15:00:38;3.55;;;1.38;;
46755;SDS011;32506;52.826;-1.192;2023-05-09T15:03:03;4.65;;;1.30;;